Time;durP1;ratioP1;P1;durP2;ratioP2;P2;SDS_P1;SDS_P2;PMS_P1;PMS_P2;Temp;Humidity;BMP_temperature;BMP_pressure;BME280_temperature;BME280_humidity;BME280_pressure;Samples;Min_cycle;Max_cycle;Signal;HPM_P1;HPM_P2
2022/02/20 00:23:04;;;;;;;13.38;12.05;;;;;;;;;;5177651;27;20063;-58
2022/02/20 00:25:35;;;;;;;12.63;11.32;;;;;;;;;;5179737;27;20074;-58
2022/02/20 00:28:02;;;;;;;11.48;10.27;;;;;;;;;;5179709;27;20499;-60
2022/02/20 00:30:28;;;;;;;11.60;10.48;;;;;;;;;;5179750;27;20098;-58
2022/02/20 00:32:58;;;;;;;12.43;11.12;;;;;;;;;;5179716;27;20074;-58
2022/02/20 00:35:26;;;;;;;12.55;10.73;;;;;;;;;;5161441;27;20166;-59
2022/02/20 00:37:52;;;;;;;12.07;10.70;;;;;;;;;;5179636;27;20164;-59
2022/02/20 00:40:18;;;;;;;11.50;10.38;;;;;;;;;;5180201;27;20086;-59
2022/02/20 00:42:44;;;;;;;12.25;10.90;;;;;;;;;;5179483;27;20588;-59
2022/02/20 00:45:10;;;;;;;12.07;10.88;;;;;;;;;;5179740;27;20092;-60
2022/02/20 00:47:36;;;;;;;12.65;11.35;;;;;;;;;;5179543;27;20086;-59
2022/02/20 00:50:03;;;;;;;10.23;9.23;;;;;;;;;;5179731;27;20187;-59
2022/02/20 00:52:30;;;;;;;11.00;9.90;;;;;;;;;;5160825;27;20078;-59
2022/02/20 00:54:56;;;;;;;9.70;8.73;;;;;;;;;;5179664;27;20066;-59
2022/02/20 00:57:22;;;;;;;10.30;9.15;;;;;;;;;;5179424;27;20504;-59
2022/02/20 00:59:48;;;;;;;11.40;10.20;;;;;;;;;;5179765;27;20227;-59
2022/02/20 01:02:14;;;;;;;9.63;8.63;;;;;;;;;;5160413;27;20498;-58
2022/02/20 01:04:40;;;;;;;8.50;7.60;;;;;;;;;;5179658;27;20179;-58
2022/02/20 01:07:07;;;;;;;8.50;7.60;;;;;;;;;;5179538;27;20089;-58
2022/02/20 01:09:33;;;;;;;9.20;7.82;;;;;;;;;;5179587;27;20054;-58
2022/02/20 01:11:59;;;;;;;8.10;6.53;;;;;;;;;;5179682;27;20100;-58
2022/02/20 01:14:25;;;;;;;6.95;6.25;;;;;;;;;;5179492;27;20172;-58
2022/02/20 01:16:51;;;;;;;5.93;5.43;;;;;;;;;;5179748;27;20508;-57
2022/02/20 01:19:17;;;;;;;5.80;5.20;;;;;;;;;;5179531;27;20094;-58
2022/02/20 01:21:43;;;;;;;5.68;5.15;;;;;;;;;;5179192;27;20082;-58
2022/02/20 01:24:09;;;;;;;5.80;5.20;;;;;;;;;;5179460;27;20586;-58
2022/02/20 01:26:35;;;;;;;5.30;4.80;;;;;;;;;;5179630;27;20134;-58
2022/02/20 01:29:01;;;;;;;5.50;4.97;;;;;;;;;;5160635;27;20085;-58
2022/02/20 01:31:27;;;;;;;5.40;4.85;;;;;;;;;;5143172;27;20093;-58
2022/02/20 01:33:53;;;;;;;5.37;4.85;;;;;;;;;;5179331;27;20074;-58
2022/02/20 01:36:19;;;;;;;5.90;4.47;;;;;;;;;;5179642;27;20391;-58
2022/02/20 01:38:45;;;;;;;5.45;4.62;;;;;;;;;;5125844;27;20470;-59
2022/02/20 01:41:11;;;;;;;5.05;4.55;;;;;;;;;;5160449;27;20098;-59
2022/02/20 01:43:37;;;;;;;4.70;4.20;;;;;;;;;;5179589;27;20085;-59
2022/02/20 01:46:03;;;;;;;4.68;4.28;;;;;;;;;;5160440;27;20174;-59
2022/02/20 01:48:35;;;;;;;5.25;4.75;;;;;;;;;;5160286;27;20504;-59
2022/02/20 01:51:01;;;;;;;5.55;4.55;;;;;;;;;;5179635;27;20101;-59
2022/02/20 01:53:28;;;;;;;4.78;4.28;;;;;;;;;;5160224;27;20058;-58
2022/02/20 01:55:54;;;;;;;4.72;4.28;;;;;;;;;;5179438;27;20076;-58
2022/02/20 01:58:20;;;;;;;4.90;4.40;;;;;;;;;;5161030;27;20406;-58
2022/02/20 02:00:46;;;;;;;4.90;4.45;;;;;;;;;;5180882;27;20082;-59
2022/02/20 02:03:16;;;;;;;5.35;4.85;;;;;;;;;;5180787;27;20405;-58
2022/02/20 02:05:43;;;;;;;5.12;4.65;;;;;;;;;;5145021;27;20579;-59
2022/02/20 02:08:11;;;;;;;5.15;4.65;;;;;;;;;;5161579;27;20461;-57
2022/02/20 02:10:37;;;;;;;5.55;4.47;;;;;;;;;;5180704;27;20069;-58
2022/02/20 02:13:03;;;;;;;4.53;4.12;;;;;;;;;;5180708;27;20081;-58
2022/02/20 02:15:29;;;;;;;4.87;4.47;;;;;;;;;;5180633;27;20066;-58
2022/02/20 02:17:56;;;;;;;5.37;4.87;;;;;;;;;;5180666;27;20174;-58
2022/02/20 02:20:22;;;;;;;4.70;4.30;;;;;;;;;;5180747;27;20081;-58
2022/02/20 02:22:48;;;;;;;5.12;4.60;;;;;;;;;;5180625;27;20080;-58
2022/02/20 02:25:14;;;;;;;5.12;4.62;;;;;;;;;;5179023;27;20058;-58
2022/02/20 02:27:40;;;;;;;4.68;4.20;;;;;;;;;;5180654;27;20450;-58
2022/02/20 02:30:09;;;;;;;5.00;4.57;;;;;;;;;;5180550;27;20088;-58
2022/02/20 02:32:35;;;;;;;4.45;4.05;;;;;;;;;;5180547;27;20069;-59
2022/02/20 02:35:01;;;;;;;5.28;4.78;;;;;;;;;;5180522;27;20085;-58
2022/02/20 02:37:27;;;;;;;4.93;4.50;;;;;;;;;;5161469;27;20070;-59
2022/02/20 02:39:53;;;;;;;5.00;4.50;;;;;;;;;;5180868;27;20097;-59
2022/02/20 02:42:19;;;;;;;5.25;4.75;;;;;;;;;;5144361;27;20171;-60
2022/02/20 02:44:45;;;;;;;5.22;4.82;;;;;;;;;;5180535;27;20076;-59
2022/02/20 02:47:11;;;;;;;5.15;4.75;;;;;;;;;;5181008;27;20082;-59
2022/02/20 02:49:38;;;;;;;5.00;4.60;;;;;;;;;;5180375;27;20074;-60
2022/02/20 02:52:05;;;;;;;5.32;4.82;;;;;;;;;;5161536;27;20174;-59
2022/02/20 02:54:32;;;;;;;5.12;4.62;;;;;;;;;;5180403;27;20094;-59
2022/02/20 02:56:58;;;;;;;4.60;4.20;;;;;;;;;;5180651;27;20166;-59
2022/02/20 02:59:24;;;;;;;4.97;4.47;;;;;;;;;;5180318;27;20500;-58
2022/02/20 03:01:50;;;;;;;5.18;4.10;;;;;;;;;;5180622;27;20188;-58
2022/02/20 03:04:17;;;;;;;4.70;4.30;;;;;;;;;;5180342;27;20117;-58
2022/02/20 03:06:43;;;;;;;4.55;4.15;;;;;;;;;;5180360;27;20180;-57
2022/02/20 03:09:09;;;;;;;5.75;4.28;;;;;;;;;;5160477;27;20085;-58
2022/02/20 03:11:46;;;;;;;;;;;;;;;;;;;;;
2022/02/20 03:14:13;;;;;;;4.35;3.95;;;;;;;;;;5145580;27;20183;-59
2022/02/20 03:16:39;;;;;;;4.35;3.95;;;;;;;;;;5180397;27;20443;-59
2022/02/20 03:19:05;;;;;;;4.97;4.47;;;;;;;;;;5180233;27;20097;-57
2022/02/20 03:21:31;;;;;;;4.43;4.00;;;;;;;;;;5161244;27;20173;-59
2022/02/20 03:23:57;;;;;;;4.12;3.72;;;;;;;;;;5161206;27;20077;-59
2022/02/20 03:26:23;;;;;;;4.37;4.07;;;;;;;;;;5180413;27;20074;-59
2022/02/20 03:28:49;;;;;;;5.03;4.53;;;;;;;;;;5180254;27;20098;-59
2022/02/20 03:31:16;;;;;;;4.95;4.40;;;;;;;;;;5180233;27;20092;-58
2022/02/20 03:33:42;;;;;;;4.57;4.18;;;;;;;;;;5161213;27;20484;-59
2022/02/20 03:36:08;;;;;;;4.43;4.03;;;;;;;;;;5180145;27;20187;-59
2022/02/20 03:38:35;;;;;;;4.12;3.72;;;;;;;;;;5161422;27;20078;-59
2022/02/20 03:41:02;;;;;;;4.07;3.60;;;;;;;;;;5160977;27;20089;-60
2022/02/20 03:43:28;;;;;;;5.00;4.60;;;;;;;;;;5180150;27;20173;-60
2022/02/20 03:45:54;;;;;;;4.28;3.87;;;;;;;;;;5160866;27;20082;-61
2022/02/20 03:48:20;;;;;;;4.93;4.47;;;;;;;;;;5180074;27;20192;-61
2022/02/20 03:50:48;;;;;;;4.87;4.47;;;;;;;;;;5180109;27;20089;-61
2022/02/20 03:53:14;;;;;;;4.68;3.80;;;;;;;;;;5160973;27;20438;-61
2022/02/20 03:55:40;;;;;;;4.45;4.05;;;;;;;;;;5160877;27;20179;-60
2022/02/20 03:58:06;;;;;;;4.45;4.05;;;;;;;;;;5179983;27;20468;-60
2022/02/20 04:00:32;;;;;;;4.03;3.62;;;;;;;;;;5180240;27;20089;-60
2022/02/20 04:02:58;;;;;;;4.35;3.95;;;;;;;;;;5179940;27;20082;-60
2022/02/20 04:05:24;;;;;;;4.53;4.10;;;;;;;;;;5143960;27;20210;-61
2022/02/20 04:07:50;;;;;;;4.30;3.90;;;;;;;;;;5160753;27;20405;-61
2022/02/20 04:10:17;;;;;;;4.40;4.00;;;;;;;;;;5179938;27;20089;-60
2022/02/20 04:12:43;;;;;;;4.50;4.10;;;;;;;;;;5160914;27;20062;-60
2022/02/20 04:15:12;;;;;;;4.72;4.32;;;;;;;;;;5160744;27;20123;-59
2022/02/20 04:17:44;;;;;;;4.47;4.07;;;;;;;;;;5179871;27;20090;-60
2022/02/20 04:20:12;;;;;;;4.50;4.10;;;;;;;;;;5179639;27;20073;-62
2022/02/20 04:22:39;;;;;;;3.97;3.67;;;;;;;;;;5143479;27;20556;-61
2022/02/20 04:25:06;;;;;;;4.28;3.87;;;;;;;;;;5143455;27;20592;-60
2022/02/20 04:27:32;;;;;;;4.32;3.92;;;;;;;;;;5180212;27;20075;-60
2022/02/20 04:29:58;;;;;;;4.07;3.65;;;;;;;;;;5179764;27;20070;-61
2022/02/20 04:32:24;;;;;;;3.70;3.40;;;;;;;;;;5179580;27;20172;-60
2022/02/20 04:34:50;;;;;;;3.95;3.55;;;;;;;;;;5179750;27;20186;-61
2022/02/20 04:37:16;;;;;;;3.40;3.10;;;;;;;;;;5179667;27;20083;-61
2022/02/20 04:39:42;;;;;;;3.45;3.15;;;;;;;;;;5179896;27;20100;-61
2022/02/20 04:42:08;;;;;;;3.22;2.92;;;;;;;;;;5160750;27;20414;-60
2022/02/20 04:44:34;;;;;;;3.33;3.03;;;;;;;;;;5179549;27;20100;-59
2022/02/20 04:47:00;;;;;;;3.83;3.30;;;;;;;;;;5180106;27;20526;-63
2022/02/20 04:49:26;;;;;;;4.03;3.62;;;;;;;;;;5160429;27;20090;-65
2022/02/20 04:51:52;;;;;;;2.80;2.60;;;;;;;;;;5179306;27;20077;-63
2022/02/20 04:54:18;;;;;;;3.20;2.90;;;;;;;;;;5179308;27;20074;-70
2022/02/20 04:56:44;;;;;;;3.08;2.67;;;;;;;;;;5160360;27;20102;-61
2022/02/20 04:59:11;;;;;;;2.97;2.75;;;;;;;;;;5179428;27;20417;-60
2022/02/20 05:01:38;;;;;;;3.30;3.00;;;;;;;;;;5160387;27;20085;-61
2022/02/20 05:04:05;;;;;;;3.22;2.92;;;;;;;;;;5179472;27;20081;-61
2022/02/20 05:06:31;;;;;;;2.70;2.50;;;;;;;;;;5178737;27;20101;-61
2022/02/20 05:08:57;;;;;;;3.00;2.40;;;;;;;;;;5177785;27;20179;-62
2022/02/20 05:11:24;;;;;;;2.83;2.62;;;;;;;;;;5178114;27;20192;-61
2022/02/20 05:13:51;;;;;;;2.28;2.08;;;;;;;;;;5160803;27;20074;-60
2022/02/20 05:16:20;;;;;;;2.22;2.03;;;;;;;;;;5179601;27;20074;-60
2022/02/20 05:18:46;;;;;;;1.98;1.80;;;;;;;;;;5179708;27;20096;-60
2022/02/20 05:21:12;;;;;;;2.08;1.87;;;;;;;;;;5179695;27;20108;-61
2022/02/20 05:23:38;;;;;;;2.28;2.03;;;;;;;;;;5143074;27;20082;-61
2022/02/20 05:26:04;;;;;;;1.77;1.67;;;;;;;;;;5176149;27;20092;-63
2022/02/20 05:28:31;;;;;;;2.00;1.90;;;;;;;;;;5157780;27;20084;-61
2022/02/20 05:30:57;;;;;;;1.92;1.80;;;;;;;;;;5157776;27;20084;-64
2022/02/20 05:33:23;;;;;;;1.80;1.70;;;;;;;;;;5177086;27;20797;-63
2022/02/20 05:35:49;;;;;;;1.77;1.67;;;;;;;;;;5177207;27;20081;-64
2022/02/20 05:38:16;;;;;;;2.50;2.30;;;;;;;;;;5178702;27;20077;-63
2022/02/20 05:40:42;;;;;;;1.80;1.70;;;;;;;;;;5178957;27;20438;-64
2022/02/20 05:43:08;;;;;;;2.17;1.85;;;;;;;;;;5159577;27;20074;-65
2022/02/20 05:45:34;;;;;;;2.22;2.03;;;;;;;;;;5159108;27;20098;-64
2022/02/20 05:48:03;;;;;;;2.35;2.00;;;;;;;;;;5160208;27;20414;-64
2022/02/20 05:50:29;;;;;;;2.25;2.05;;;;;;;;;;5160052;27;20082;-63
2022/02/20 05:52:56;;;;;;;2.40;2.20;;;;;;;;;;5160238;27;20078;-64
2022/02/20 05:55:22;;;;;;;2.87;2.58;;;;;;;;;;5179332;27;20185;-63
2022/02/20 05:57:50;;;;;;;2.33;2.12;;;;;;;;;;5177959;27;20146;-64
2022/02/20 06:00:19;;;;;;;1.95;1.85;;;;;;;;;;5177109;27;20074;-64
2022/02/20 06:02:45;;;;;;;2.10;1.90;;;;;;;;;;5158140;27;20141;-65
2022/02/20 06:05:12;;;;;;;2.45;2.25;;;;;;;;;;5141666;27;20082;-64
2022/02/20 06:07:38;;;;;;;2.35;2.15;;;;;;;;;;5142337;27;20141;-64
2022/02/20 06:10:05;;;;;;;2.78;2.58;;;;;;;;;;5160137;27;20066;-64
2022/02/20 06:12:32;;;;;;;2.72;2.53;;;;;;;;;;5160238;27;20143;-63
2022/02/20 06:14:58;;;;;;;2.22;2.03;;;;;;;;;;5179003;27;20114;-63
2022/02/20 06:17:24;;;;;;;2.78;2.50;;;;;;;;;;5157909;27;20190;-63
2022/02/20 06:19:51;;;;;;;2.55;2.35;;;;;;;;;;5176693;27;20082;-64
2022/02/20 06:22:17;;;;;;;2.50;2.30;;;;;;;;;;5176993;27;20501;-64
2022/02/20 06:24:43;;;;;;;1.83;1.73;;;;;;;;;;5178378;27;20069;-63
2022/02/20 06:27:09;;;;;;;2.33;2.12;;;;;;;;;;5178056;27;20149;-61
2022/02/20 06:29:36;;;;;;;2.05;1.95;;;;;;;;;;5141067;27;20500;-63
2022/02/20 06:32:02;;;;;;;2.05;1.95;;;;;;;;;;5177190;27;20160;-63
2022/02/20 06:34:28;;;;;;;2.58;2.37;;;;;;;;;;5177213;27;20168;-64
2022/02/20 06:36:54;;;;;;;2.90;2.60;;;;;;;;;;5177027;27;20093;-64
2022/02/20 06:39:21;;;;;;;2.47;2.28;;;;;;;;;;5157305;27;20098;-62
2022/02/20 06:41:47;;;;;;;2.12;1.92;;;;;;;;;;5176989;27;20083;-63
2022/02/20 06:44:13;;;;;;;1.98;1.80;;;;;;;;;;5177798;27;20680;-63
2022/02/20 06:46:41;;;;;;;2.47;2.22;;;;;;;;;;5159404;27;20097;-62
2022/02/20 06:49:08;;;;;;;3.85;2.40;;;;;;;;;;5178409;27;20651;-64
2022/02/20 06:51:34;;;;;;;3.22;2.40;;;;;;;;;;5159776;27;20080;-64
2022/02/20 06:54:01;;;;;;;3.35;2.20;;;;;;;;;;5161107;27;20089;-64
2022/02/20 06:56:27;;;;;;;1.83;1.73;;;;;;;;;;5179032;27;20155;-62
2022/02/20 06:58:53;;;;;;;2.75;2.03;;;;;;;;;;5159011;27;20183;-63
2022/02/20 07:01:19;;;;;;;4.72;2.70;;;;;;;;;;5180010;27;20411;-65
2022/02/20 07:03:46;;;;;;;1.87;1.77;;;;;;;;;;5178659;27;20094;-64
2022/02/20 07:06:12;;;;;;;2.00;1.80;;;;;;;;;;5177809;27;20089;-62
2022/02/20 07:08:38;;;;;;;2.00;1.70;;;;;;;;;;5178357;27;20102;-63
2022/02/20 07:11:04;;;;;;;2.10;1.90;;;;;;;;;;5178433;27;20085;-63
2022/02/20 07:13:30;;;;;;;2.62;2.10;;;;;;;;;;5142574;27;20199;-63
2022/02/20 07:15:57;;;;;;;2.85;2.62;;;;;;;;;;5107639;27;20089;-60
2022/02/20 07:18:23;;;;;;;2.03;1.52;;;;;;;;;;5142057;27;20425;-61
2022/02/20 07:20:49;;;;;;;1.95;1.70;;;;;;;;;;5178766;27;20097;-61
2022/02/20 07:23:15;;;;;;;2.00;1.90;;;;;;;;;;5180428;27;20070;-61
2022/02/20 07:25:42;;;;;;;1.90;1.80;;;;;;;;;;5180128;27;20109;-61
2022/02/20 07:28:09;;;;;;;1.80;1.70;;;;;;;;;;5161390;27;20144;-61
2022/02/20 07:30:36;;;;;;;1.92;1.83;;;;;;;;;;5180049;27;20066;-61
2022/02/20 07:33:07;;;;;;;2.12;1.90;;;;;;;;;;5143754;27;20058;-62
2022/02/20 07:35:37;;;;;;;1.83;1.73;;;;;;;;;;5161176;27;20165;-62
2022/02/20 07:38:03;;;;;;;2.00;1.80;;;;;;;;;;5180078;27;20066;-62
2022/02/20 07:40:30;;;;;;;1.80;1.70;;;;;;;;;;5161138;27;20104;-62
2022/02/20 07:42:57;;;;;;;1.87;1.77;;;;;;;;;;5180166;27;20082;-62
2022/02/20 07:45:26;;;;;;;1.92;1.83;;;;;;;;;;5177413;27;20070;-62
2022/02/20 07:47:56;;;;;;;1.70;1.60;;;;;;;;;;5160419;27;20078;-60
2022/02/20 07:50:31;;;;;;;2.20;2.00;;;;;;;;;;5179279;27;20181;-61
2022/02/20 07:52:58;;;;;;;1.80;1.70;;;;;;;;;;5179423;27;20067;-61
2022/02/20 07:55:25;;;;;;;1.87;1.73;;;;;;;;;;5160639;27;20071;-62
2022/02/20 07:57:51;;;;;;;1.75;1.65;;;;;;;;;;5144037;27;20152;-61
2022/02/20 08:00:19;;;;;;;2.10;1.90;;;;;;;;;;5180382;27;20103;-63
2022/02/20 08:02:46;;;;;;;1.80;1.70;;;;;;;;;;5180046;27;20086;-63
2022/02/20 08:05:12;;;;;;;2.00;1.90;;;;;;;;;;5179941;27;20463;-62
2022/02/20 08:07:38;;;;;;;2.35;2.15;;;;;;;;;;5179919;27;20066;-63
2022/02/20 08:10:05;;;;;;;4.82;4.28;;;;;;;;;;5179902;27;20076;-62
2022/02/20 08:12:32;;;;;;;3.58;3.17;;;;;;;;;;5180168;27;20097;-63
2022/02/20 08:14:58;;;;;;;2.65;2.45;;;;;;;;;;5160992;27;20093;-62
2022/02/20 08:17:24;;;;;;;2.65;2.20;;;;;;;;;;5143827;27;20394;-64
2022/02/20 08:19:50;;;;;;;3.30;3.00;;;;;;;;;;5179940;27;20077;-62
2022/02/20 08:22:17;;;;;;;3.53;2.40;;;;;;;;;;5161325;27;20097;-62
2022/02/20 08:24:44;;;;;;;2.53;2.33;;;;;;;;;;5160977;27;20160;-62
2022/02/20 08:27:13;;;;;;;2.42;2.22;;;;;;;;;;5160629;27;20630;-63
2022/02/20 08:29:39;;;;;;;1.95;1.85;;;;;;;;;;5179729;27;20402;-63
2022/02/20 08:32:06;;;;;;;2.50;2.30;;;;;;;;;;5179997;27;20085;-62
2022/02/20 08:34:33;;;;;;;2.78;2.30;;;;;;;;;;5179672;27;20081;-62
2022/02/20 08:37:00;;;;;;;2.40;2.05;;;;;;;;;;5179828;27;20073;-63
2022/02/20 08:39:28;;;;;;;2.87;2.67;;;;;;;;;;5179602;27;20081;-63
2022/02/20 08:41:59;;;;;;;2.78;2.58;;;;;;;;;;5109365;27;20093;-61
2022/02/20 08:44:25;;;;;;;2.75;2.55;;;;;;;;;;5143707;27;20583;-63
2022/02/20 08:46:51;;;;;;;2.35;2.15;;;;;;;;;;5161058;27;20187;-63
2022/02/20 08:49:18;;;;;;;2.85;2.60;;;;;;;;;;5179777;27;20098;-65
2022/02/20 08:51:44;;;;;;;2.58;2.37;;;;;;;;;;5178774;27;20697;-60
2022/02/20 08:54:10;;;;;;;2.50;2.30;;;;;;;;;;5178081;27;20114;-59
2022/02/20 08:56:36;;;;;;;3.17;2.87;;;;;;;;;;5177514;27;20473;-58
2022/02/20 08:59:02;;;;;;;2.72;2.53;;;;;;;;;;5176693;27;20093;-59
2022/02/20 09:01:28;;;;;;;2.50;2.30;;;;;;;;;;5177235;27;20732;-59
2022/02/20 09:04:02;;;;;;;3.35;2.62;;;;;;;;;;5177321;27;20089;-60
2022/02/20 09:06:32;;;;;;;2.50;2.28;;;;;;;;;;5159803;27;20084;-59
2022/02/20 09:08:59;;;;;;;2.50;2.30;;;;;;;;;;5177198;27;20521;-60
2022/02/20 09:11:26;;;;;;;2.65;2.45;;;;;;;;;;5177289;27;20096;-60
2022/02/20 09:13:52;;;;;;;3.05;2.53;;;;;;;;;;5176779;27;20085;-58
2022/02/20 09:16:19;;;;;;;2.53;2.33;;;;;;;;;;5157570;27;20097;-59
2022/02/20 09:18:45;;;;;;;2.50;2.30;;;;;;;;;;5176985;27;20422;-59
2022/02/20 09:21:12;;;;;;;2.90;2.70;;;;;;;;;;5178398;27;20078;-60
2022/02/20 09:23:38;;;;;;;2.85;2.58;;;;;;;;;;5178659;27;20556;-60
2022/02/20 09:26:07;;;;;;;3.30;2.60;;;;;;;;;;5176732;27;20104;-59
2022/02/20 09:28:33;;;;;;;2.92;2.33;;;;;;;;;;5158413;27;20090;-57
2022/02/20 09:31:00;;;;;;;3.15;2.75;;;;;;;;;;5158383;27;20078;-59
2022/02/20 09:33:26;;;;;;;3.22;2.75;;;;;;;;;;5177895;27;20093;-60
2022/02/20 09:35:52;;;;;;;2.90;2.62;;;;;;;;;;5177679;27;20489;-59
2022/02/20 09:38:19;;;;;;;4.28;2.55;;;;;;;;;;5176583;27;20085;-59
2022/02/20 09:40:45;;;;;;;3.50;3.20;;;;;;;;;;5156922;27;20171;-58
2022/02/20 09:43:17;;;;;;;6.57;4.80;;;;;;;;;;5177034;27;20488;-59
2022/02/20 09:45:48;;;;;;;10.95;8.90;;;;;;;;;;5176896;27;20171;-60
2022/02/20 09:48:15;;;;;;;11.05;8.50;;;;;;;;;;5176331;27;20117;-59
2022/02/20 09:50:41;;;;;;;10.38;5.97;;;;;;;;;;5157281;27;20524;-62
2022/02/20 09:53:08;;;;;;;3.22;2.92;;;;;;;;;;5176583;27;20085;-62
2022/02/20 09:55:34;;;;;;;8.45;4.78;;;;;;;;;;5176475;27;20093;-61
2022/02/20 09:58:00;;;;;;;9.43;5.05;;;;;;;;;;5178028;27;20085;-59
2022/02/20 10:00:26;;;;;;;5.43;4.07;;;;;;;;;;5177662;27;20491;-63
2022/02/20 10:02:52;;;;;;;9.68;5.57;;;;;;;;;;5177316;27;20090;-64
2022/02/20 10:05:21;;;;;;;8.98;5.28;;;;;;;;;;5160220;27;20081;-63
2022/02/20 10:07:47;;;;;;;6.70;3.47;;;;;;;;;;5142694;27;20081;-63
2022/02/20 10:10:20;;;;;;;11.93;5.97;;;;;;;;;;5179120;27;20084;-62
2022/02/20 10:12:47;;;;;;;5.97;4.62;;;;;;;;;;5159467;27;20427;-62
2022/02/20 10:15:31;;;;;;;6.18;5.10;;;;;;;;;;5156974;27;20097;-62
2022/02/20 10:18:19;;;;;;;3.03;2.45;;;;;;;;;;5140144;27;20085;-61
2022/02/20 10:20:47;;;;;;;9.70;5.18;;;;;;;;;;5177670;27;20113;-61
2022/02/20 10:23:14;;;;;;;3.42;2.80;;;;;;;;;;5177017;27;20097;-62
2022/02/20 10:25:44;;;;;;;4.55;3.10;;;;;;;;;;5176923;27;20090;-60
2022/02/20 10:28:11;;;;;;;7.18;4.07;;;;;;;;;;5177128;27;20449;-58
2022/02/20 10:30:38;;;;;;;4.35;3.30;;;;;;;;;;5178353;27;20066;-63
2022/02/20 10:33:05;;;;;;;3.20;2.70;;;;;;;;;;5142203;27;20199;-61
2022/02/20 10:35:36;;;;;;;3.30;2.60;;;;;;;;;;5159554;27;20184;-59
2022/02/20 10:38:22;;;;;;;3.42;2.70;;;;;;;;;;5142281;27;20352;-60
2022/02/20 10:40:50;;;;;;;3.17;2.75;;;;;;;;;;5178989;27;20405;-60
2022/02/20 10:43:32;;;;;;;2.90;2.60;;;;;;;;;;5179500;27;20165;-61
2022/02/20 10:46:11;;;;;;;2.40;2.20;;;;;;;;;;5179600;27;20070;-61
2022/02/20 10:48:46;;;;;;;3.47;2.60;;;;;;;;;;5179602;27;20508;-60
2022/02/20 10:51:14;;;;;;;2.87;2.63;;;;;;;;;;5143350;27;20104;-62
2022/02/20 10:53:41;;;;;;;2.80;2.60;;;;;;;;;;5179574;27;20529;-62
2022/02/20 10:56:07;;;;;;;3.22;2.83;;;;;;;;;;5160481;27;20096;-61
2022/02/20 10:58:35;;;;;;;3.28;2.87;;;;;;;;;;5180073;27;20065;-63
2022/02/20 11:01:03;;;;;;;3.00;2.58;;;;;;;;;;5160886;27;20496;-62
2022/02/20 11:03:33;;;;;;;3.70;3.05;;;;;;;;;;5180786;27;20175;-61
2022/02/20 11:06:01;;;;;;;3.05;2.55;;;;;;;;;;5180240;27;20165;-62
2022/02/20 11:08:29;;;;;;;4.47;3.03;;;;;;;;;;5143551;27;20185;-62
2022/02/20 11:10:56;;;;;;;3.58;3.10;;;;;;;;;;5179466;27;20085;-63
2022/02/20 11:13:24;;;;;;;3.92;2.90;;;;;;;;;;5159839;27;20102;-64
2022/02/20 11:15:52;;;;;;;3.25;2.95;;;;;;;;;;5160342;27;20104;-61
2022/02/20 11:18:21;;;;;;;3.75;3.00;;;;;;;;;;5143000;27;20082;-63
2022/02/20 11:20:53;;;;;;;4.12;3.10;;;;;;;;;;5179506;27;20105;-63
2022/02/20 11:23:26;;;;;;;4.40;3.10;;;;;;;;;;5179411;27;20086;-61
2022/02/20 11:25:55;;;;;;;4.45;3.83;;;;;;;;;;5142786;27;20109;-63
2022/02/20 11:28:21;;;;;;;5.32;3.30;;;;;;;;;;5179323;27;20485;-62
2022/02/20 11:30:47;;;;;;;3.78;3.12;;;;;;;;;;5160290;27;20386;-63
2022/02/20 11:33:14;;;;;;;3.50;3.20;;;;;;;;;;5161063;27;20073;-63
2022/02/20 11:35:43;;;;;;;3.45;3.15;;;;;;;;;;5160751;27;20672;-63
2022/02/20 11:38:15;;;;;;;3.62;2.90;;;;;;;;;;5178960;27;20106;-63
2022/02/20 11:40:56;;;;;;;3.83;3.05;;;;;;;;;;5178370;27;20094;-63
2022/02/20 11:43:36;;;;;;;4.47;3.22;;;;;;;;;;5178972;27;20086;-63
2022/02/20 11:46:11;;;;;;;4.53;3.03;;;;;;;;;;5179390;27;20074;-63
2022/02/20 11:49:03;;;;;;;3.17;2.83;;;;;;;;;;5178219;27;20505;-63
2022/02/20 11:51:30;;;;;;;4.70;4.05;;;;;;;;;;5180061;27;20064;-63
2022/02/20 11:54:14;;;;;;;5.90;5.30;;;;;;;;;;5180269;27;20128;-63
2022/02/20 11:56:41;;;;;;;5.53;4.97;;;;;;;;;;5179855;27;20093;-64
2022/02/20 11:59:17;;;;;;;3.30;3.00;;;;;;;;;;5161249;27;20505;-59
2022/02/20 12:02:12;;;;;;;4.18;3.10;;;;;;;;;;5178056;27;20093;-60
2022/02/20 12:04:50;;;;;;;3.85;2.97;;;;;;;;;;5178022;27;20096;-59
2022/02/20 12:07:42;;;;;;;3.53;2.83;;;;;;;;;;5178513;27;20069;-60
2022/02/20 12:10:24;;;;;;;4.28;3.67;;;;;;;;;;5178510;27;20102;-59
2022/02/20 12:12:56;;;;;;;3.30;3.00;;;;;;;;;;5178477;27;20503;-60
2022/02/20 12:15:34;;;;;;;3.20;2.70;;;;;;;;;;5178408;27;20157;-59
2022/02/20 12:18:12;;;;;;;3.78;3.08;;;;;;;;;;5178689;27;20089;-59
2022/02/20 12:20:54;;;;;;;5.10;4.35;;;;;;;;;;5175195;27;20088;-59
2022/02/20 12:23:50;;;;;;;5.82;4.05;;;;;;;;;;5176822;27;20578;-59
2022/02/20 12:26:40;;;;;;;6.90;3.60;;;;;;;;;;5157544;27;20077;-59
2022/02/20 12:29:14;;;;;;;4.00;3.47;;;;;;;;;;5176529;27;20244;-59
2022/02/20 12:32:00;;;;;;;3.42;3.10;;;;;;;;;;5177136;27;20074;-60
2022/02/20 12:35:02;;;;;;;4.18;3.28;;;;;;;;;;5177098;27;20110;-60
2022/02/20 12:37:31;;;;;;;5.32;4.60;;;;;;;;;;5179315;27;20082;-60
2022/02/20 12:40:01;;;;;;;5.25;4.10;;;;;;;;;;5143265;27;20086;-60
2022/02/20 12:42:30;;;;;;;4.30;3.75;;;;;;;;;;5143562;27;20489;-60
2022/02/20 12:45:06;;;;;;;5.10;3.50;;;;;;;;;;5179727;27;20159;-60
2022/02/20 12:47:36;;;;;;;3.80;3.03;;;;;;;;;;5178661;27;20080;-60
2022/02/20 12:50:03;;;;;;;4.28;3.28;;;;;;;;;;5179589;27;20238;-60
2022/02/20 12:52:34;;;;;;;4.87;3.42;;;;;;;;;;5156827;27;20516;-60
2022/02/20 12:55:01;;;;;;;3.30;3.00;;;;;;;;;;5178203;27;20106;-60
2022/02/20 12:57:28;;;;;;;5.28;3.20;;;;;;;;;;5176271;27;20274;-60
2022/02/20 12:59:58;;;;;;;4.18;3.17;;;;;;;;;;5158789;27;20102;-60
2022/02/20 13:02:35;;;;;;;3.30;2.85;;;;;;;;;;5177539;27;20079;-61
2022/02/20 13:05:06;;;;;;;4.68;3.30;;;;;;;;;;5177268;27;20192;-61
2022/02/20 13:07:39;;;;;;;4.18;3.20;;;;;;;;;;5158301;27;20097;-62
2022/02/20 13:10:05;;;;;;;4.28;3.40;;;;;;;;;;5157902;27;20504;-62
2022/02/20 13:12:32;;;;;;;3.87;3.10;;;;;;;;;;5177088;27;20179;-62
2022/02/20 13:15:02;;;;;;;4.87;3.42;;;;;;;;;;5179262;27;20082;-61
2022/02/20 13:18:07;;;;;;;3.95;3.55;;;;;;;;;;5178561;27;20509;-61
2022/02/20 13:20:41;;;;;;;3.87;3.47;;;;;;;;;;5179353;27;20543;-60
2022/02/20 13:23:24;;;;;;;3.67;3.08;;;;;;;;;;5178678;27;20088;-62
2022/02/20 13:25:53;;;;;;;5.28;3.35;;;;;;;;;;5176674;27;20096;-58
2022/02/20 13:28:22;;;;;;;3.60;3.10;;;;;;;;;;5177181;27;20086;-61
2022/02/20 13:30:49;;;;;;;5.40;3.70;;;;;;;;;;5177262;27;20169;-62
2022/02/20 13:33:18;;;;;;;3.67;3.25;;;;;;;;;;5157886;27;20497;-62
2022/02/20 13:35:45;;;;;;;3.33;3.03;;;;;;;;;;5140490;27;20179;-60
2022/02/20 13:38:26;;;;;;;5.25;3.80;;;;;;;;;;5158358;27;20070;-58
2022/02/20 13:40:53;;;;;;;5.32;3.75;;;;;;;;;;5158200;27;20094;-62
2022/02/20 13:43:20;;;;;;;4.25;3.47;;;;;;;;;;5157996;27;20117;-59
2022/02/20 13:45:52;;;;;;;5.22;3.40;;;;;;;;;;5175657;27;20171;-60
2022/02/20 13:48:45;;;;;;;4.62;3.78;;;;;;;;;;5157136;27;20101;-60
2022/02/20 13:51:30;;;;;;;4.72;3.85;;;;;;;;;;5176769;27;20101;-61
2022/02/20 13:54:03;;;;;;;5.05;3.65;;;;;;;;;;5176685;27;20168;-61
2022/02/20 13:56:45;;;;;;;5.70;3.80;;;;;;;;;;5177672;27;20196;-60
2022/02/20 13:59:26;;;;;;;3.53;3.03;;;;;;;;;;5178929;27;20061;-61
2022/02/20 14:02:09;;;;;;;4.53;3.90;;;;;;;;;;5160163;27;20082;-61
2022/02/20 14:04:41;;;;;;;4.37;3.80;;;;;;;;;;5178931;27;20089;-60
2022/02/20 14:07:19;;;;;;;5.62;4.00;;;;;;;;;;5178939;27;20078;-61
2022/02/20 14:09:47;;;;;;;4.32;3.75;;;;;;;;;;5179300;27;20199;-61
2022/02/20 14:12:17;;;;;;;3.92;3.40;;;;;;;;;;5177869;27;20160;-60
2022/02/20 14:15:01;;;;;;;4.22;3.78;;;;;;;;;;5159875;27;20090;-61
2022/02/20 14:17:53;;;;;;;4.43;3.60;;;;;;;;;;5179126;27;20187;-62
2022/02/20 14:20:26;;;;;;;4.95;3.83;;;;;;;;;;5179046;27;20093;-62
2022/02/20 14:22:53;;;;;;;5.25;4.32;;;;;;;;;;5178996;27;20100;-63
2022/02/20 14:25:21;;;;;;;5.07;3.50;;;;;;;;;;5179159;27;20873;-62
2022/02/20 14:27:51;;;;;;;3.90;3.47;;;;;;;;;;5179160;27;20165;-62
2022/02/20 14:30:35;;;;;;;4.57;3.65;;;;;;;;;;5179265;27;20062;-63
2022/02/20 14:33:07;;;;;;;4.78;3.97;;;;;;;;;;5159817;27;20094;-63
2022/02/20 14:35:33;;;;;;;6.32;4.12;;;;;;;;;;5178631;27;20184;-62
2022/02/20 14:38:04;;;;;;;4.75;3.62;;;;;;;;;;5160191;27;20081;-63
2022/02/20 14:40:32;;;;;;;4.20;3.75;;;;;;;;;;5179505;27;20088;-63
2022/02/20 14:42:58;;;;;;;5.35;3.55;;;;;;;;;;5159822;27;20086;-63
2022/02/20 14:45:29;;;;;;;5.85;4.00;;;;;;;;;;5159811;27;20058;-63
2022/02/20 14:47:56;;;;;;;5.12;3.65;;;;;;;;;;5160032;27;20081;-62
2022/02/20 14:50:22;;;;;;;5.35;4.05;;;;;;;;;;5125521;27;20504;-62
2022/02/20 14:52:48;;;;;;;5.82;4.00;;;;;;;;;;5178617;27;20473;-61
2022/02/20 14:55:15;;;;;;;6.82;3.75;;;;;;;;;;5178996;27;20073;-62
2022/02/20 14:57:43;;;;;;;4.37;3.95;;;;;;;;;;5159565;27;20137;-61
2022/02/20 15:00:11;;;;;;;6.25;3.97;;;;;;;;;;5159534;27;20414;-63
2022/02/20 15:02:38;;;;;;;4.72;3.60;;;;;;;;;;5159922;27;20063;-63
2022/02/20 15:05:05;;;;;;;3.97;3.60;;;;;;;;;;5179186;27;20081;-63
2022/02/20 15:07:32;;;;;;;3.97;3.58;;;;;;;;;;5180032;27;20573;-64
2022/02/20 15:09:58;;;;;;;4.60;3.58;;;;;;;;;;5180098;27;20174;-63
2022/02/20 15:12:28;;;;;;;4.90;3.90;;;;;;;;;;5179977;27;20142;-61
2022/02/20 15:14:55;;;;;;;4.43;3.58;;;;;;;;;;5179236;27;20069;-62